<?xml version="1.0" encoding="UTF-8" standalone="no" ?>
<gpx xmlns="http://www.topografix.com/GPX/1/1" xmlns:xsi="http://www.w3.org/2001/XMLSchema-instance" xsi:schemaLocation="http://www.topografix.com/GPX/1/1 http://www.topografix.com/GPX/1/1/gpx.xsd" version="1.1" creator="VisuGPX - https://www.visugpx.com">
  <metadata>
    <name>DH Plateau des Petites Roches</name>
  </metadata>
  <wpt lat="45.31652" lon="5.89215">
    <ele>909.4</ele>
  </wpt>
  <wpt lat="45.31652" lon="5.89215">
    <ele>909.4</ele>
  </wpt>
  <trk>
    <name><![CDATA[14437934-Descente  Aménagée de Pierre Courbe.]]></name>
    <extensions>
      <line xmlns="http://www.topografix.com/GPX/gpx_style/0/2">
        <color>000088</color>
        <width>4</width>
      </line>
    </extensions>
    <trkseg>
      <trkpt lat="45.31262" lon="5.87803">
        <ele>1170</ele>
        <time>2022-03-21T07:50:59Z</time>
      </trkpt>
      <trkpt lat="45.31277" lon="5.87867">
        <ele>1155</ele>
        <time>2022-03-21T07:51:10Z</time>
      </trkpt>
      <trkpt lat="45.31292" lon="5.87913">
        <ele>1145</ele>
        <time>2022-03-21T07:51:18Z</time>
      </trkpt>
      <trkpt lat="45.31292" lon="5.87992">
        <ele>1128</ele>
        <time>2022-03-21T07:51:31Z</time>
      </trkpt>
      <trkpt lat="45.31251" lon="5.87992">
        <ele>1128</ele>
        <time>2022-03-21T07:51:41Z</time>
      </trkpt>
      <trkpt lat="45.31253" lon="5.88047">
        <ele>1115</ele>
        <time>2022-03-21T07:51:50Z</time>
      </trkpt>
      <trkpt lat="45.31202" lon="5.88029">
        <ele>1112</ele>
        <time>2022-03-21T07:52:02Z</time>
      </trkpt>
      <trkpt lat="45.31225" lon="5.8812">
        <ele>1097</ele>
        <time>2022-03-21T07:52:18Z</time>
      </trkpt>
      <trkpt lat="45.31166" lon="5.88111">
        <ele>1095</ele>
        <time>2022-03-21T07:52:32Z</time>
      </trkpt>
      <trkpt lat="45.31174" lon="5.88211">
        <ele>1077</ele>
        <time>2022-03-21T07:52:49Z</time>
      </trkpt>
      <trkpt lat="45.31106" lon="5.88177">
        <ele>1072</ele>
        <time>2022-03-21T07:53:05Z</time>
      </trkpt>
      <trkpt lat="45.31144" lon="5.88262">
        <ele>1066</ele>
        <time>2022-03-21T07:53:22Z</time>
      </trkpt>
      <trkpt lat="45.31095" lon="5.88293">
        <ele>1055</ele>
        <time>2022-03-21T07:53:34Z</time>
      </trkpt>
      <trkpt lat="45.31136" lon="5.88356">
        <ele>1049</ele>
        <time>2022-03-21T07:53:49Z</time>
      </trkpt>
      <trkpt lat="45.31164" lon="5.88417">
        <ele>1036</ele>
        <time>2022-03-21T07:54:00Z</time>
      </trkpt>
      <trkpt lat="45.31208" lon="5.88478">
        <ele>1009</ele>
        <time>2022-03-21T07:54:15Z</time>
      </trkpt>
      <trkpt lat="45.31275" lon="5.88493">
        <ele>994</ele>
        <time>2022-03-21T07:54:31Z</time>
      </trkpt>
      <trkpt lat="45.31351" lon="5.88545">
        <ele>975</ele>
        <time>2022-03-21T07:54:50Z</time>
      </trkpt>
      <trkpt lat="45.31405" lon="5.8859">
        <ele>969</ele>
        <time>2022-03-21T07:55:05Z</time>
      </trkpt>
    </trkseg>
  </trk>
</gpx>